Time;durP1;ratioP1;P1;durP2;ratioP2;P2;SDS_P1;SDS_P2;PMS_P1;PMS_P2;Temp;Humidity;BMP_temperature;BMP_pressure;BME280_temperature;BME280_humidity;BME280_pressure;Samples;Min_cycle;Max_cycle;Signal;HPM_P1;HPM_P2
2022/07/04 04:06:36;;;;;;;1.90;1.80;;;18.50;99.90;;;;;;5015317;28;20466;-68
2022/07/04 04:09:03;;;;;;;2.33;2.23;;;18.60;99.90;;;;;;5015136;28;20473;-68
2022/07/04 04:11:28;;;;;;;2.10;2.00;;;18.60;99.90;;;;;;5014454;28;20170;-68
2022/07/04 04:13:54;;;;;;;2.90;2.73;;;18.60;99.90;;;;;;5014892;28;20525;-68
2022/07/04 04:16:19;;;;;;;2.23;2.13;;;18.60;99.90;;;;;;5015420;28;20179;-68
2022/07/04 04:18:45;;;;;;;1.70;1.60;;;18.70;99.90;;;;;;5015259;28;20647;-68
2022/07/04 04:21:11;;;;;;;1.90;1.80;;;18.70;99.90;;;;;;5015426;28;20322;-70
2022/07/04 04:23:36;;;;;;;2.00;1.90;;;18.80;99.90;;;;;;5014734;28;20675;-68
2022/07/04 04:26:02;;;;;;;2.00;1.90;;;18.80;99.90;;;;;;5014482;28;20181;-68
2022/07/04 04:28:27;;;;;;;2.03;1.90;;;18.80;99.90;;;;;;5014466;28;20179;-67
2022/07/04 04:30:53;;;;;;;2.13;2.03;;;18.80;99.90;;;;;;5014925;28;20578;-67
2022/07/04 04:33:19;;;;;;;2.57;2.40;;;18.80;99.90;;;;;;5013552;28;20192;-68
2022/07/04 04:35:44;;;;;;;2.43;2.23;;;18.80;99.90;;;;;;5014466;28;20170;-68
2022/07/04 04:38:10;;;;;;;2.10;2.00;;;18.90;99.90;;;;;;5014936;28;20187;-70
2022/07/04 04:40:36;;;;;;;2.50;2.30;;;18.90;99.90;;;;;;5012855;28;20287;-69
2022/07/04 04:43:02;;;;;;;2.23;2.13;;;19.00;99.90;;;;;;5014132;28;20419;-69
2022/07/04 04:45:27;;;;;;;1.57;1.50;;;19.10;99.90;;;;;;5014668;28;20197;-69
2022/07/04 04:47:53;;;;;;;2.30;2.20;;;19.10;99.90;;;;;;5014759;28;20810;-68
2022/07/04 04:50:20;;;;;;;2.80;1.80;;;19.20;99.90;;;;;;5014783;28;20637;-69
2022/07/04 04:52:46;;;;;;;2.40;2.20;;;19.20;99.90;;;;;;5013890;28;20254;-69
2022/07/04 04:55:11;;;;;;;3.23;2.33;;;19.30;99.90;;;;;;5014148;28;20916;-67
2022/07/04 04:57:37;;;;;;;2.37;2.20;;;19.40;99.90;;;;;;5014369;28;20724;-70
2022/07/04 05:00:04;;;;;;;2.03;1.93;;;19.40;99.90;;;;;;5014403;28;20729;-69
2022/07/04 05:02:30;;;;;;;2.00;1.90;;;19.50;99.90;;;;;;5014040;28;20273;-69
2022/07/04 05:04:56;;;;;;;2.60;2.50;;;19.60;99.90;;;;;;5014171;28;20449;-70
2022/07/04 05:07:22;;;;;;;2.60;2.10;;;19.70;99.90;;;;;;5014364;28;20387;-70
2022/07/04 05:09:47;;;;;;;1.70;1.60;;;19.80;99.90;;;;;;5013056;28;20635;-69
2022/07/04 05:12:13;;;;;;;2.40;1.93;;;19.90;99.90;;;;;;5013544;28;20186;-72
2022/07/04 05:14:38;;;;;;;1.70;1.70;;;20.00;99.90;;;;;;5014068;28;20190;-70
2022/07/04 05:17:04;;;;;;;2.97;2.67;;;20.00;99.90;;;;;;5014141;28;20171;-70
2022/07/04 05:19:30;;;;;;;2.73;2.53;;;20.10;99.90;;;;;;5013718;28;20199;-69
2022/07/04 05:21:55;;;;;;;2.30;2.20;;;20.20;99.90;;;;;;5014020;28;20186;-69
2022/07/04 05:24:21;;;;;;;2.10;2.00;;;20.20;99.90;;;;;;5013438;28;20191;-70
2022/07/04 05:26:47;;;;;;;1.87;1.77;;;20.20;99.90;;;;;;5014229;28;20170;-70
2022/07/04 05:29:14;;;;;;;1.67;1.57;;;20.20;99.90;;;;;;5013697;28;20261;-71
2022/07/04 05:31:39;;;;;;;4.87;2.10;;;20.20;99.90;;;;;;5014031;28;20166;-72
2022/07/04 05:34:05;;;;;;;2.07;1.97;;;20.20;99.90;;;;;;5011943;28;20439;-70
2022/07/04 05:36:31;;;;;;;1.87;1.77;;;20.20;99.90;;;;;;5014048;28;20209;-70
2022/07/04 05:38:57;;;;;;;2.70;2.40;;;20.30;99.90;;;;;;5013786;28;20658;-70
2022/07/04 05:41:25;;;;;;;3.63;1.90;;;20.40;99.90;;;;;;5013614;28;20473;-71
2022/07/04 05:43:51;;;;;;;2.30;2.20;;;20.40;99.90;;;;;;5013184;28;20598;-71
2022/07/04 05:46:16;;;;;;;1.87;1.77;;;20.50;99.90;;;;;;5013714;28;20467;-69
2022/07/04 05:48:42;;;;;;;2.17;2.07;;;20.60;99.90;;;;;;5013935;28;20630;-70
2022/07/04 05:51:08;;;;;;;2.40;2.20;;;20.70;99.90;;;;;;5013538;28;20186;-70
2022/07/04 05:53:34;;;;;;;2.00;1.90;;;20.90;99.90;;;;;;5013139;28;20194;-69
2022/07/04 05:55:59;;;;;;;2.10;2.00;;;21.10;99.90;;;;;;5012303;28;20900;-70
2022/07/04 05:58:26;;;;;;;1.73;1.63;;;21.40;99.90;;;;;;5013669;28;20275;-70
2022/07/04 06:00:52;;;;;;;1.63;1.53;;;21.50;99.90;;;;;;5013566;28;20677;-70
2022/07/04 06:03:17;;;;;;;1.77;1.60;;;21.80;99.90;;;;;;5013037;28;20425;-69
2022/07/04 06:05:43;;;;;;;2.30;2.10;;;22.00;99.90;;;;;;5011041;28;20329;-70
2022/07/04 06:08:08;;;;;;;1.80;1.70;;;22.10;99.90;;;;;;5013501;28;20621;-70
2022/07/04 06:10:34;;;;;;;2.73;1.70;;;22.30;99.90;;;;;;5013196;28;20183;-68
2022/07/04 06:13:00;;;;;;;2.17;2.07;;;22.40;99.90;;;;;;5012881;28;20612;-68
2022/07/04 06:15:25;;;;;;;3.80;1.87;;;22.50;99.70;;;;;;5012067;28;20179;-69
2022/07/04 06:17:51;;;;;;;1.53;1.50;;;22.40;99.10;;;;;;5013473;28;20257;-68
2022/07/04 06:20:17;;;;;;;1.83;1.70;;;22.30;98.90;;;;;;5012675;28;20294;-69
2022/07/04 06:22:46;;;;;;;1.90;1.80;;;22.40;99.70;;;;;;5013022;28;20253;-68
2022/07/04 06:25:16;;;;;;;2.13;1.93;;;22.40;99.00;;;;;;5013303;28;20767;-69
2022/07/04 06:27:43;;;;;;;2.03;1.93;;;22.50;98.60;;;;;;5013326;28;20407;-68
2022/07/04 06:30:10;;;;;;;2.17;2.03;;;22.50;98.60;;;;;;5013280;28;20416;-69
2022/07/04 06:33:01;;;;;;;2.37;2.17;;;22.60;98.60;;;;;;5012988;28;20417;-68
2022/07/04 06:35:45;;;;;;;2.00;1.90;;;22.60;98.50;;;;;;5012598;28;20408;-69
2022/07/04 06:38:12;;;;;;;1.93;1.73;;;22.70;98.60;;;;;;5013162;28;20864;-68
2022/07/04 06:40:40;;;;;;;2.50;2.40;;;22.80;98.30;;;;;;5013099;28;20548;-69
2022/07/04 06:43:06;;;;;;;1.80;1.47;;;22.70;98.40;;;;;;5012813;28;20799;-69
2022/07/04 06:45:33;;;;;;;2.30;2.07;;;22.70;98.20;;;;;;5013334;28;20804;-69
2022/07/04 06:48:06;;;;;;;3.93;2.03;;;22.70;98.00;;;;;;5011927;28;20820;-68
2022/07/04 06:50:32;;;;;;;2.17;2.07;;;22.90;98.40;;;;;;5012884;28;20430;-69
2022/07/04 06:53:05;;;;;;;1.80;1.70;;;22.90;98.00;;;;;;5012458;28;20445;-68
2022/07/04 06:55:35;;;;;;;2.20;2.00;;;22.90;98.10;;;;;;5012886;28;20380;-69
2022/07/04 06:58:01;;;;;;;2.90;2.60;;;23.10;98.50;;;;;;5013053;28;20501;-68
2022/07/04 07:00:26;;;;;;;2.60;2.47;;;23.30;97.80;;;;;;5012918;28;20452;-68
2022/07/04 07:02:52;;;;;;;1.73;1.63;;;23.40;98.20;;;;;;5012828;28;20820;-69
2022/07/04 07:05:18;;;;;;;2.17;2.03;;;23.40;97.90;;;;;;5012318;28;20269;-69
2022/07/04 07:07:43;;;;;;;1.93;1.80;;;23.50;98.30;;;;;;5012947;28;20171;-69
2022/07/04 07:10:09;;;;;;;2.37;2.27;;;23.70;98.10;;;;;;5012838;28;20720;-70
2022/07/04 07:12:35;;;;;;;2.10;2.00;;;23.80;97.70;;;;;;5012514;28;20178;-69
2022/07/04 07:15:01;;;;;;;3.23;2.30;;;24.00;97.30;;;;;;5012783;28;20198;-69
2022/07/04 07:17:27;;;;;;;2.10;2.00;;;24.00;97.20;;;;;;5015914;28;20216;-69
2022/07/04 07:19:53;;;;;;;2.50;2.30;;;23.80;96.20;;;;;;5015931;28;20199;-68
2022/07/04 07:22:18;;;;;;;2.03;1.93;;;23.70;96.10;;;;;;5014628;28;20454;-69
2022/07/04 07:24:44;;;;;;;1.90;1.80;;;23.60;96.80;;;;;;5014970;28;20194;-69
2022/07/04 07:27:13;;;;;;;1.80;1.70;;;23.70;96.80;;;;;;5016370;28;20404;-69
2022/07/04 07:29:39;;;;;;;2.37;2.27;;;23.80;96.90;;;;;;5016525;28;20171;-69
2022/07/04 07:32:05;;;;;;;6.03;2.53;;;23.90;96.60;;;;;;5014561;28;20410;-69
2022/07/04 07:34:32;;;;;;;2.10;2.00;;;24.00;96.70;;;;;;5015527;28;20567;-69
2022/07/04 07:36:57;;;;;;;2.13;1.93;;;24.20;96.70;;;;;;5016249;28;20896;-69
2022/07/04 07:39:23;;;;;;;3.13;2.07;;;24.40;96.70;;;;;;5016002;28;20424;-69
2022/07/04 07:41:49;;;;;;;2.10;2.00;;;24.50;95.90;;;;;;5015932;28;20172;-69
2022/07/04 07:44:15;;;;;;;2.30;2.10;;;24.60;95.30;;;;;;5015468;28;20183;-69
2022/07/04 07:46:41;;;;;;;1.90;1.80;;;24.50;95.10;;;;;;5014614;28;20171;-69
2022/07/04 07:49:07;;;;;;;2.03;1.93;;;24.40;95.10;;;;;;5015531;28;20414;-69
2022/07/04 07:51:32;;;;;;;1.70;1.60;;;24.30;95.60;;;;;;5015862;28;20800;-69
2022/07/04 07:53:58;;;;;;;2.20;2.10;;;24.20;96.40;;;;;;5015355;28;20191;-69
2022/07/04 07:56:25;;;;;;;2.00;1.90;;;24.10;95.20;;;;;;5015815;28;20239;-70
2022/07/04 07:58:51;;;;;;;2.10;2.00;;;24.00;96.30;;;;;;5015494;28;20402;-69
2022/07/04 08:01:17;;;;;;;1.97;1.87;;;24.00;95.10;;;;;;5015668;28;20402;-69
2022/07/04 08:06:27;;;;;;;1.97;1.87;;;23.90;95.20;;;;;;5015528;28;20241;-69
2022/07/04 08:08:52;;;;;;;2.30;2.03;;;24.00;95.40;;;;;;5015349;28;20373;-70
2022/07/04 08:11:19;;;;;;;2.60;2.40;;;24.10;95.00;;;;;;5013977;28;20171;-69
2022/07/04 08:13:44;;;;;;;5.07;2.30;;;24.20;95.30;;;;;;5014859;28;20205;-69
2022/07/04 08:16:10;;;;;;;2.37;2.17;;;24.30;95.20;;;;;;5014976;28;20410;-69
2022/07/04 08:18:36;;;;;;;2.13;2.03;;;24.30;95.50;;;;;;5014042;28;20300;-69
2022/07/04 08:21:02;;;;;;;2.27;2.07;;;24.30;95.00;;;;;;5015064;28;20195;-69
2022/07/04 08:23:33;;;;;;;2.20;2.10;;;24.20;94.80;;;;;;5014585;28;20618;-70
2022/07/04 08:26:00;;;;;;;3.43;2.90;;;24.20;95.10;;;;;;5014829;28;20913;-70
2022/07/04 08:28:27;;;;;;;2.17;2.07;;;24.20;95.70;;;;;;5014191;28;20444;-69
2022/07/04 08:30:53;;;;;;;2.67;1.97;;;24.20;95.00;;;;;;5015215;28;20431;-69
2022/07/04 08:33:18;;;;;;;3.07;2.90;;;24.20;95.60;;;;;;5014452;28;20429;-68
2022/07/04 08:35:44;;;;;;;2.20;2.00;;;24.30;95.40;;;;;;5015007;28;20394;-69
2022/07/04 08:38:10;;;;;;;2.57;2.37;;;24.40;94.90;;;;;;5015034;28;20203;-68
2022/07/04 08:40:36;;;;;;;2.43;1.80;;;24.50;94.70;;;;;;5014497;28;20199;-68
2022/07/04 08:43:03;;;;;;;2.20;2.10;;;24.40;95.00;;;;;;5014326;28;20527;-69
2022/07/04 08:45:34;;;;;;;2.60;2.40;;;24.60;95.40;;;;;;5014839;28;20172;-69
2022/07/04 08:48:02;;;;;;;2.83;2.60;;;24.70;95.10;;;;;;5015010;28;20378;-68
2022/07/04 08:50:54;;;;;;;2.67;2.47;;;24.60;95.10;;;;;;5014694;28;20436;-69
2022/07/04 08:53:21;;;;;;;2.10;1.90;;;24.80;94.90;;;;;;5013785;28;20425;-69
2022/07/04 08:58:33;;;;;;;2.77;2.57;;;25.20;94.90;;;;;;5014826;28;20538;-69
2022/07/04 09:01:01;;;;;;;3.97;2.33;;;25.50;93.90;;;;;;5014394;28;20434;-69
2022/07/04 09:03:27;;;;;;;3.27;3.07;;;25.60;93.80;;;;;;5013783;28;20495;-69
2022/07/04 09:05:54;;;;;;;2.63;2.43;;;25.60;93.10;;;;;;5014259;28;20428;-69
2022/07/04 09:08:20;;;;;;;2.43;2.30;;;25.80;93.50;;;;;;5013052;28;20445;-69
2022/07/04 09:10:50;;;;;;;2.27;2.13;;;25.80;93.60;;;;;;5014179;28;20429;-70
2022/07/04 09:13:17;;;;;;;2.60;2.43;;;25.90;93.80;;;;;;5013889;28;20917;-69
2022/07/04 09:15:44;;;;;;;2.40;2.30;;;25.90;93.20;;;;;;5014260;28;20383;-69
2022/07/04 09:18:31;;;;;;;2.73;2.63;;;26.00;93.00;;;;;;5014027;28;20453;-69
2022/07/04 09:20:59;;;;;;;2.30;2.17;;;26.20;92.50;;;;;;5014066;28;20424;-69
2022/07/04 09:23:30;;;;;;;3.70;2.60;;;26.50;92.20;;;;;;5013294;28;20480;-69
2022/07/04 09:26:10;;;;;;;2.67;2.50;;;26.70;92.10;;;;;;5014123;28;20890;-69
2022/07/04 09:28:37;;;;;;;2.20;2.10;;;26.90;91.50;;;;;;5014316;28;20384;-69
2022/07/04 09:31:12;;;;;;;2.53;2.33;;;27.00;90.70;;;;;;5014036;28;20420;-69
2022/07/04 09:34:00;;;;;;;2.17;2.07;;;27.40;91.20;;;;;;5012219;28;20459;-70
2022/07/04 09:36:27;;;;;;;2.80;2.60;;;28.30;91.30;;;;;;5013884;28;20410;-69
2022/07/04 09:39:20;;;;;;;3.10;2.33;;;29.00;88.40;;;;;;5013462;28;20734;-71
2022/07/04 09:42:04;;;;;;;2.10;2.00;;;30.20;83.20;;;;;;5013815;28;20762;-71
2022/07/04 09:44:46;;;;;;;2.73;2.53;;;31.40;79.10;;;;;;5013706;28;20429;-70
2022/07/04 09:47:27;;;;;;;2.47;2.30;;;32.10;76.90;;;;;;5014034;28;20406;-70
2022/07/04 09:50:09;;;;;;;2.53;2.33;;;32.60;73.30;;;;;;5013769;28;20429;-70
2022/07/04 09:52:44;;;;;;;2.60;2.40;;;33.10;71.90;;;;;;5012127;28;20417;-67
2022/07/04 09:55:10;;;;;;;2.90;2.70;;;33.70;71.40;;;;;;5012897;28;20952;-68
2022/07/04 09:57:35;;;;;;;2.70;2.50;;;34.40;68.90;;;;;;5013551;28;20497;-68
2022/07/04 10:00:26;;;;;;;3.07;2.47;;;34.80;65.00;;;;;;5013504;28;20348;-68
2022/07/04 10:02:54;;;;;;;7.80;2.97;;;34.90;64.20;;;;;;5013166;28;20542;-67
2022/07/04 10:05:29;;;;;;;2.93;2.63;;;34.60;66.60;;;;;;5013352;28;20505;-67
2022/07/04 10:07:57;;;;;;;2.67;2.57;;;35.00;65.00;;;;;;5013470;28;20472;-68
2022/07/04 10:10:29;;;;;;;2.60;2.50;;;35.50;62.20;;;;;;5012126;28;20512;-68
2022/07/04 10:13:00;;;;;;;3.20;2.90;;;35.80;62.20;;;;;;5012831;28;20410;-69
2022/07/04 10:15:26;;;;;;;2.70;2.60;;;35.80;59.60;;;;;;5012218;28;20414;-68
2022/07/04 10:17:52;;;;;;;2.80;2.70;;;35.80;60.60;;;;;;5013317;28;20410;-67
2022/07/04 10:20:18;;;;;;;3.07;2.60;;;35.90;57.80;;;;;;5013421;28;20201;-68
2022/07/04 10:22:43;;;;;;;2.30;2.20;;;35.20;59.00;;;;;;5012708;28;20497;-67
2022/07/04 10:25:10;;;;;;;2.63;2.53;;;34.90;59.50;;;;;;5013252;28;20456;-68
2022/07/04 10:27:37;;;;;;;2.37;2.20;;;35.10;61.30;;;;;;5013520;28;20194;-68
2022/07/04 10:30:06;;;;;;;2.70;2.50;;;35.60;59.50;;;;;;5013320;28;20757;-69
2022/07/04 10:32:33;;;;;;;4.00;2.70;;;35.80;58.60;;;;;;5012742;28;20437;-70
2022/07/04 10:34:59;;;;;;;2.97;2.83;;;35.90;58.90;;;;;;5013093;28;20542;-70
2022/07/04 10:37:26;;;;;;;2.63;2.53;;;35.60;56.60;;;;;;5011853;28;20505;-69
2022/07/04 10:39:51;;;;;;;3.07;2.80;;;35.00;57.00;;;;;;5012933;28;20202;-69
2022/07/04 10:42:25;;;;;;;2.43;2.30;;;34.60;57.00;;;;;;5012643;28;20418;-70
2022/07/04 10:44:51;;;;;;;2.10;2.00;;;34.40;58.10;;;;;;5013149;28;20198;-69
2022/07/04 10:47:24;;;;;;;2.30;2.20;;;34.30;59.40;;;;;;5013104;28;20484;-69
2022/07/04 10:49:51;;;;;;;2.20;2.10;;;34.30;57.80;;;;;;5013014;28;20834;-68
2022/07/04 10:52:17;;;;;;;2.70;2.50;;;34.20;58.40;;;;;;5015846;28;20406;-69
2022/07/04 10:54:44;;;;;;;2.30;2.20;;;34.00;57.50;;;;;;5015098;28;20979;-68
2022/07/04 10:57:24;;;;;;;3.53;3.30;;;33.80;58.50;;;;;;5016874;28;20174;-69
2022/07/04 10:59:57;;;;;;;2.90;2.73;;;33.40;59.50;;;;;;5016603;28;20416;-68
2022/07/04 11:02:29;;;;;;;3.03;2.73;;;32.90;59.30;;;;;;5016186;28;20764;-69
2022/07/04 11:05:03;;;;;;;3.30;2.57;;;32.90;61.90;;;;;;5016557;28;20441;-69
2022/07/04 11:07:35;;;;;;;2.70;2.50;;;32.60;60.20;;;;;;5015183;28;20399;-69
2022/07/04 11:12:56;;;;;;;3.23;2.60;;;32.10;62.90;;;;;;5015537;28;20452;-68
2022/07/04 11:15:27;;;;;;;5.10;4.60;;;31.90;64.00;;;;;;5015773;28;20398;-69
2022/07/04 11:18:01;;;;;;;7.80;7.10;;;31.40;64.10;;;;;;5015792;28;20889;-71
2022/07/04 11:20:29;;;;;;;2.60;2.43;;;30.80;66.40;;;;;;5016254;28;20456;-68
2022/07/04 11:23:12;;;;;;;2.57;2.43;;;30.40;68.50;;;;;;5015737;28;20432;-70
2022/07/04 11:25:40;;;;;;;3.10;2.90;;;29.90;68.70;;;;;;5016058;28;20755;-70
2022/07/04 11:28:19;;;;;;;3.53;2.63;;;29.40;69.40;;;;;;5016279;28;20739;-68
2022/07/04 11:30:53;;;;;;;2.63;2.43;;;28.90;73.20;;;;;;5016293;28;20406;-70
2022/07/04 11:33:21;;;;;;;2.67;2.50;;;28.30;72.60;;;;;;5014399;28;20423;-71
2022/07/04 11:36:07;;;;;;;2.83;2.63;;;28.00;72.70;;;;;;5016016;28;20376;-72
2022/07/04 11:39:13;;;;;;;2.80;2.60;;;27.60;74.30;;;;;;5015656;28;20970;-71
2022/07/04 11:47:21;;;;;;;2.37;2.27;;;26.80;75.00;;;;;;4975207;28;20485;-73
2022/07/04 11:49:55;;;;;;;2.80;2.13;;;26.80;78.80;;;;;;4974821;28;20811;-71
2022/07/04 11:52:23;;;;;;;4.20;3.90;;;26.80;80.10;;;;;;4978020;28;20875;-71
2022/07/04 11:54:50;;;;;;;2.50;2.40;;;26.90;79.60;;;;;;4994125;28;20774;-69
2022/07/04 11:57:20;;;;;;;2.60;2.50;;;27.10;78.80;;;;;;4994056;28;20450;-73
2022/07/04 11:59:59;;;;;;;2.30;2.20;;;27.10;75.30;;;;;;4994001;28;20433;-69
2022/07/04 12:02:26;;;;;;;2.40;2.30;;;27.00;75.20;;;;;;4992294;28;20423;-71
2022/07/04 12:04:52;;;;;;;3.20;2.17;;;26.80;75.80;;;;;;4993439;28;20421;-69
2022/07/04 12:07:20;;;;;;;2.80;2.60;;;26.70;80.40;;;;;;4993389;28;20422;-73
2022/07/04 12:09:47;;;;;;;2.90;2.60;;;26.80;81.70;;;;;;4993913;28;20290;-69
2022/07/04 12:12:17;;;;;;;2.40;2.30;;;27.00;81.40;;;;;;5002726;28;20489;-71
2022/07/04 12:15:09;;;;;;;2.57;2.37;;;27.00;77.80;;;;;;5015059;28;20877;-70
2022/07/04 12:17:38;;;;;;;2.30;2.20;;;27.00;79.70;;;;;;5014921;28;20519;-70
2022/07/04 12:20:17;;;;;;;2.60;2.50;;;27.00;78.40;;;;;;5014428;28;20992;-74
2022/07/04 12:22:57;;;;;;;2.13;2.00;;;26.90;77.50;;;;;;5014623;28;20415;-72
2022/07/04 12:25:36;;;;;;;2.37;2.27;;;26.90;81.30;;;;;;5014844;28;20408;-74
2022/07/04 12:28:10;;;;;;;2.37;2.20;;;27.10;80.80;;;;;;5013698;28;20472;-73
2022/07/04 12:30:49;;;;;;;2.50;2.40;;;27.10;77.30;;;;;;5013614;28;20484;-74
2022/07/04 12:33:19;;;;;;;2.60;2.40;;;27.10;78.30;;;;;;5014175;28;20849;-73
2022/07/04 12:35:49;;;;;;;2.27;2.17;;;27.00;77.10;;;;;;5014400;28;20436;-76
2022/07/04 12:38:17;;;;;;;2.20;2.10;;;26.90;78.70;;;;;;5014440;28;20914;-72
2022/07/04 12:41:12;;;;;;;2.10;2.00;;;26.90;79.80;;;;;;5013248;28;20544;-72
2022/07/04 12:43:40;;;;;;;5.23;2.03;;;27.10;76.60;;;;;;5012775;28;20431;-73
2022/07/04 12:46:29;;;;;;;2.50;2.23;;;27.10;76.90;;;;;;5013171;28;20407;-73
2022/07/04 12:48:57;;;;;;;2.33;2.23;;;27.20;76.40;;;;;;5012900;28;20838;-75
2022/07/04 12:51:28;;;;;;;2.20;2.10;;;27.10;76.80;;;;;;5013102;28;20411;-74
2022/07/04 12:53:56;;;;;;;1.93;1.83;;;27.10;80.60;;;;;;5011796;28;20423;-74
2022/07/04 12:56:36;;;;;;;1.87;1.77;;;27.10;77.20;;;;;;5014735;28;20778;-74
2022/07/04 12:59:13;;;;;;;2.73;2.17;;;27.00;75.70;;;;;;5014653;28;20385;-73
2022/07/04 13:01:41;;;;;;;1.70;1.60;;;26.90;75.60;;;;;;5014661;28;20402;-73
2022/07/04 13:04:06;;;;;;;2.03;1.93;;;26.90;74.70;;;;;;5013607;28;20431;-73
2022/07/04 13:06:33;;;;;;;1.70;1.70;;;26.90;75.60;;;;;;5014857;28;20813;-73
2022/07/04 13:08:59;;;;;;;1.97;1.87;;;26.80;77.20;;;;;;5014419;28;20174;-73
2022/07/04 13:14:09;;;;;;;6.20;2.30;;;26.80;76.80;;;;;;5013892;28;20424;-73
2022/07/04 13:16:35;;;;;;;3.67;2.00;;;26.80;77.10;;;;;;5014107;28;20377;-73
2022/07/04 13:19:01;;;;;;;2.23;2.10;;;26.70;77.30;;;;;;5013802;28;20397;-73
2022/07/04 13:21:27;;;;;;;2.43;2.23;;;26.60;77.00;;;;;;5014173;28;20251;-72
2022/07/04 13:23:53;;;;;;;5.40;2.70;;;26.50;78.30;;;;;;5013688;28;20715;-72
2022/07/04 13:26:19;;;;;;;2.53;2.37;;;26.60;78.60;;;;;;5014064;28;20189;-72
2022/07/04 13:28:45;;;;;;;2.23;2.03;;;26.70;79.90;;;;;;5014145;28;20175;-73
2022/07/04 13:31:10;;;;;;;9.33;3.67;;;26.60;77.80;;;;;;5013995;28;20409;-74
2022/07/04 13:33:36;;;;;;;2.50;2.13;;;26.70;77.70;;;;;;5013158;28;20203;-74
2022/07/04 13:36:03;;;;;;;2.40;2.27;;;26.70;77.20;;;;;;5012689;28;20195;-74
2022/07/04 13:38:28;;;;;;;2.40;2.27;;;26.80;76.80;;;;;;5014183;28;20175;-75
2022/07/04 13:40:56;;;;;;;9.17;7.43;;;26.80;77.30;;;;;;5012557;28;20615;-72
2022/07/04 13:43:24;;;;;;;2.23;2.13;;;26.70;78.70;;;;;;5011663;28;20190;-73
2022/07/04 13:45:50;;;;;;;3.10;2.90;;;26.70;78.20;;;;;;5013491;28;20773;-75
2022/07/04 13:48:16;;;;;;;59.73;19.43;;;26.90;80.10;;;;;;5013342;28;20422;-73
2022/07/04 13:50:41;;;;;;;3.30;2.27;;;27.00;80.30;;;;;;5013578;28;20174;-74
2022/07/04 13:53:08;;;;;;;2.50;2.30;;;27.20;81.70;;;;;;5013268;28;20168;-74
2022/07/04 13:55:35;;;;;;;3.20;2.90;;;27.20;78.80;;;;;;5013626;28;20628;-73
2022/07/04 13:58:05;;;;;;;2.73;2.50;;;27.00;77.40;;;;;;5013402;28;20434;-71
2022/07/04 14:00:31;;;;;;;2.30;2.20;;;26.90;76.00;;;;;;5010009;28;20971;-72
2022/07/04 14:02:57;;;;;;;2.20;2.10;;;26.80;76.10;;;;;;5011400;28;20388;-72
2022/07/04 14:05:24;;;;;;;2.10;2.00;;;26.80;79.50;;;;;;5012766;28;20433;-72
2022/07/04 14:07:53;;;;;;;2.30;2.07;;;26.80;79.70;;;;;;5013392;28;20198;-72
2022/07/04 14:10:19;;;;;;;2.47;2.37;;;26.70;79.70;;;;;;5013419;28;20399;-73
2022/07/04 14:12:44;;;;;;;2.20;2.10;;;26.60;80.30;;;;;;5012991;28;20868;-73
2022/07/04 14:15:10;;;;;;;2.27;2.17;;;26.60;80.40;;;;;;5012578;28;20202;-72
2022/07/04 14:17:37;;;;;;;3.43;2.00;;;26.50;80.40;;;;;;5012233;28;20193;-72
2022/07/04 14:20:08;;;;;;;3.53;2.60;;;26.50;80.20;;;;;;5013254;28;20206;-72
2022/07/04 14:22:34;;;;;;;2.40;2.30;;;26.50;79.80;;;;;;5012782;28;20414;-73
2022/07/04 14:25:00;;;;;;;8.40;2.37;;;26.50;80.90;;;;;;5012511;28;20913;-72
2022/07/04 14:27:26;;;;;;;2.27;2.17;;;26.50;81.70;;;;;;5016471;28;20400;-73
2022/07/04 14:29:51;;;;;;;2.20;2.10;;;26.50;82.80;;;;;;5017193;28;20202;-74
2022/07/04 14:32:17;;;;;;;2.40;2.30;;;26.40;80.50;;;;;;5016558;28;20209;-72
2022/07/04 14:34:43;;;;;;;3.10;2.90;;;26.40;81.80;;;;;;5016965;28;20202;-71
2022/07/04 14:37:09;;;;;;;2.03;1.93;;;26.30;81.80;;;;;;5017417;28;20171;-74
2022/07/04 14:39:35;;;;;;;2.53;2.13;;;26.30;81.70;;;;;;5017173;28;20464;-71
2022/07/04 14:42:00;;;;;;;2.47;2.37;;;26.10;81.60;;;;;;5017102;28;20175;-71
2022/07/04 14:44:26;;;;;;;2.47;2.37;;;26.10;82.20;;;;;;5015940;28;20193;-70
2022/07/04 14:46:52;;;;;;;2.60;2.37;;;26.10;81.80;;;;;;5017409;28;20202;-73
2022/07/04 14:49:18;;;;;;;2.63;2.30;;;26.10;81.60;;;;;;5015759;28;20554;-72
2022/07/04 14:51:43;;;;;;;4.07;2.20;;;26.20;81.20;;;;;;5016870;28;20169;-74
2022/07/04 14:54:10;;;;;;;2.20;2.10;;;26.30;80.50;;;;;;5016334;28;20499;-72
2022/07/04 14:56:36;;;;;;;2.27;2.17;;;26.20;81.70;;;;;;5016159;28;20258;-73
2022/07/04 14:59:03;;;;;;;2.10;2.00;;;26.20;82.80;;;;;;5016793;28;20706;-74
2022/07/04 15:01:29;;;;;;;3.03;2.00;;;26.10;81.90;;;;;;5016036;28;20400;-70
2022/07/04 15:03:55;;;;;;;3.00;2.60;;;26.00;81.10;;;;;;5015325;28;20438;-72
2022/07/04 15:06:21;;;;;;;3.33;3.10;;;26.00;81.60;;;;;;5016367;28;20974;-71
2022/07/04 15:08:47;;;;;;;2.60;2.37;;;26.00;81.70;;;;;;5016637;28;20167;-75
2022/07/04 15:11:13;;;;;;;2.60;2.40;;;26.00;81.10;;;;;;5015689;28;20179;-70
2022/07/04 15:13:39;;;;;;;2.67;2.57;;;26.00;81.40;;;;;;5015742;28;20415;-72
2022/07/04 15:16:05;;;;;;;2.53;2.43;;;26.10;82.40;;;;;;5016368;28;20384;-71
2022/07/04 15:18:31;;;;;;;2.43;2.27;;;26.10;81.50;;;;;;5015990;28;20322;-71
2022/07/04 15:26:25;;;;;;;3.30;2.63;;;26.10;81.40;;;;;;5015998;28;20955;-70
2022/07/04 15:28:51;;;;;;;2.90;2.70;;;26.10;81.60;;;;;;5014885;28;20385;-71
2022/07/04 15:31:17;;;;;;;3.20;3.00;;;26.20;81.90;;;;;;5014551;28;20574;-70
2022/07/04 15:33:43;;;;;;;2.77;2.63;;;26.20;83.30;;;;;;5015717;28;20433;-71
2022/07/04 15:36:09;;;;;;;2.90;2.47;;;26.20;82.10;;;;;;5016027;28;20534;-73
2022/07/04 15:38:35;;;;;;;2.47;2.13;;;26.20;82.90;;;;;;5015883;28;20185;-72
2022/07/04 15:41:02;;;;;;;2.33;2.23;;;26.10;81.80;;;;;;5015314;28;20453;-71
2022/07/04 15:43:31;;;;;;;2.83;2.63;;;26.20;80.80;;;;;;5015595;28;20207;-73
2022/07/04 15:45:58;;;;;;;2.30;2.20;;;26.20;81.70;;;;;;5015592;28;20450;-73
2022/07/04 15:48:24;;;;;;;2.37;2.27;;;26.30;81.20;;;;;;5015869;28;20410;-72
2022/07/04 15:50:49;;;;;;;12.30;10.27;;;26.30;80.70;;;;;;5015189;28;20476;-70
2022/07/04 15:53:15;;;;;;;2.90;2.70;;;26.30;81.60;;;;;;5015095;28;20963;-70
2022/07/04 15:55:41;;;;;;;4.70;2.30;;;26.30;82.40;;;;;;5015471;28;20179;-72
2022/07/04 15:58:06;;;;;;;2.13;2.03;;;26.40;80.70;;;;;;5015088;28;20309;-74
2022/07/04 16:00:32;;;;;;;2.40;2.30;;;26.50;78.80;;;;;;5013756;28;20566;-72
2022/07/04 16:02:58;;;;;;;2.27;2.17;;;26.50;77.50;;;;;;5014843;28;20172;-71
2022/07/04 16:05:24;;;;;;;2.50;2.40;;;26.50;77.00;;;;;;5015123;28;20188;-71
2022/07/04 16:07:49;;;;;;;3.13;2.13;;;26.50;77.30;;;;;;5013866;28;20504;-70
2022/07/04 16:10:15;;;;;;;2.67;2.47;;;26.50;76.70;;;;;;5013704;28;20229;-68
2022/07/04 16:12:41;;;;;;;1.97;1.87;;;26.50;77.10;;;;;;5013658;28;20174;-69
2022/07/04 16:15:07;;;;;;;4.07;2.00;;;26.40;77.90;;;;;;5014639;28;20202;-66
2022/07/04 16:17:33;;;;;;;2.40;2.20;;;26.40;77.90;;;;;;5015319;28;20179;-68
2022/07/04 16:19:59;;;;;;;2.00;1.90;;;26.40;76.80;;;;;;5014788;28;20519;-69
2022/07/04 16:22:24;;;;;;;3.43;2.03;;;26.40;76.00;;;;;;5014517;28;20630;-68
2022/07/04 16:24:50;;;;;;;2.23;2.13;;;26.30;75.00;;;;;;5013793;28;20285;-69
2022/07/04 16:27:16;;;;;;;2.60;2.07;;;26.20;75.30;;;;;;5011794;28;20178;-68
2022/07/04 16:29:42;;;;;;;2.20;2.10;;;26.10;75.20;;;;;;5013277;28;20171;-70
2022/07/04 16:32:07;;;;;;;1.93;1.80;;;26.00;75.40;;;;;;5013101;28;20182;-69
2022/07/04 16:34:33;;;;;;;2.43;2.23;;;26.00;75.10;;;;;;5010351;28;20203;-70
2022/07/04 16:36:59;;;;;;;5.50;4.53;;;26.00;74.60;;;;;;5012442;28;20186;-69
2022/07/04 16:39:24;;;;;;;4.80;2.67;;;26.10;75.20;;;;;;5013021;28;20256;-68
2022/07/04 16:41:50;;;;;;;2.50;1.93;;;26.20;75.60;;;;;;5013144;28;20293;-70
2022/07/04 16:44:16;;;;;;;1.77;1.67;;;26.30;75.60;;;;;;5010733;28;20245;-71
2022/07/04 16:46:42;;;;;;;2.00;1.90;;;26.30;73.30;;;;;;5012995;28;20634;-70
2022/07/04 16:49:08;;;;;;;1.83;1.73;;;26.30;71.00;;;;;;5012125;28;20400;-72
2022/07/04 16:51:34;;;;;;;1.93;1.83;;;26.30;71.60;;;;;;5012755;28;20407;-70
2022/07/04 16:54:00;;;;;;;1.87;1.77;;;26.30;69.80;;;;;;5012467;28;20194;-69
2022/07/04 16:56:26;;;;;;;2.37;1.70;;;26.30;69.30;;;;;;5012327;28;20262;-74
2022/07/04 16:58:51;;;;;;;1.63;1.53;;;26.40;67.20;;;;;;5012824;28;20484;-72
2022/07/04 17:01:17;;;;;;;3.60;1.70;;;26.40;67.90;;;;;;5013129;28;20559;-71
2022/07/04 17:03:43;;;;;;;1.83;1.73;;;26.40;68.30;;;;;;5012484;28;20217;-72
2022/07/04 17:06:08;;;;;;;1.67;1.57;;;26.50;68.70;;;;;;5012190;28;20190;-68
2022/07/04 17:08:38;;;;;;;1.60;1.50;;;26.50;69.10;;;;;;5014169;28;20209;-69
2022/07/04 17:11:05;;;;;;;1.50;1.50;;;26.60;68.90;;;;;;5013900;28;20809;-68
2022/07/04 17:13:31;;;;;;;1.73;1.63;;;26.50;68.30;;;;;;5013502;28;20451;-71
2022/07/04 17:15:57;;;;;;;2.30;1.57;;;26.50;66.90;;;;;;5013819;28;20403;-70
2022/07/04 17:18:22;;;;;;;3.50;1.63;;;26.50;66.90;;;;;;5013666;28;20406;-70